createdAt,value
2023-05-15T00:02:27.857Z,13.50
2023-05-15T00:04:55.550Z,13.40
2023-05-15T00:07:23.079Z,13.40
2023-05-15T00:09:50.499Z,13.50
2023-05-15T00:12:18.542Z,13.40
2023-05-15T00:14:46.051Z,13.40
2023-05-15T00:17:13.450Z,13.40
2023-05-15T00:19:40.853Z,13.50
2023-05-15T00:22:08.722Z,13.40
2023-05-15T00:24:36.284Z,13.40
2023-05-15T00:27:04.403Z,13.40
2023-05-15T00:29:31.857Z,13.40
2023-05-15T00:31:59.248Z,13.40
2023-05-15T00:34:26.738Z,13.30
2023-05-15T00:36:54.133Z,13.30
2023-05-15T00:39:21.640Z,13.20
2023-05-15T00:41:49.846Z,13.30
2023-05-15T00:44:19.147Z,13.20
2023-05-15T00:46:47.060Z,13.10
2023-05-15T00:49:15.179Z,13.10
2023-05-15T00:51:43.174Z,13.10
2023-05-15T00:54:11.397Z,13.10
2023-05-15T00:56:39.140Z,13.10
2023-05-15T00:59:07.780Z,13.00
2023-05-15T01:01:35.626Z,13.00
2023-05-15T01:04:03.833Z,13.00
2023-05-15T01:06:32.171Z,13.00
2023-05-15T01:09:04.274Z,13.00
2023-05-15T01:11:36.303Z,12.90
2023-05-15T01:14:05.478Z,12.90
2023-05-15T01:16:34.035Z,12.80
2023-05-15T01:19:01.986Z,12.70
2023-05-15T01:21:52.234Z,12.60
2023-05-15T01:24:43.987Z,12.60
2023-05-15T01:27:43.219Z,12.50
2023-05-15T01:30:28.499Z,12.40
2023-05-15T01:33:04.180Z,12.30
2023-05-15T01:35:38.645Z,12.30
2023-05-15T01:38:09.125Z,12.40
2023-05-15T01:40:36.583Z,12.30
2023-05-15T01:43:09.845Z,12.30
2023-05-15T01:45:39.747Z,12.30
2023-05-15T01:48:08.771Z,12.30
2023-05-15T01:50:38.926Z,12.30
2023-05-15T01:53:11.317Z,12.30
2023-05-15T01:55:42.017Z,12.20
2023-05-15T01:58:09.981Z,12.10
2023-05-15T02:00:38.563Z,12.10
2023-05-15T02:03:06.950Z,12.10
2023-05-15T02:05:35.709Z,12.00
2023-05-15T02:08:04.489Z,12.00
2023-05-15T02:10:33.671Z,12.00
2023-05-15T02:13:02.094Z,11.90
2023-05-15T02:15:30.242Z,11.90
2023-05-15T02:17:57.795Z,11.80
2023-05-15T02:20:25.234Z,11.80
2023-05-15T02:22:52.622Z,11.70
2023-05-15T02:25:41.277Z,11.70
2023-05-15T02:28:17.354Z,11.70
2023-05-15T02:30:58.009Z,11.60
2023-05-15T02:33:47.010Z,11.60
2023-05-15T02:36:20.468Z,11.60
2023-05-15T02:38:50.978Z,11.60
2023-05-15T02:41:19.323Z,11.60
2023-05-15T02:43:49.004Z,11.60
2023-05-15T02:46:17.942Z,11.50
2023-05-15T02:48:47.148Z,11.60
2023-05-15T02:51:14.754Z,11.50
2023-05-15T02:53:42.981Z,11.50
2023-05-15T02:56:10.507Z,11.50
2023-05-15T02:58:39.564Z,11.40
2023-05-15T03:01:07.020Z,11.40
2023-05-15T03:03:34.575Z,11.40
2023-05-15T03:06:01.979Z,11.50
2023-05-15T03:08:29.501Z,11.40
2023-05-15T03:10:56.917Z,11.30
2023-05-15T03:13:24.243Z,11.30
2023-05-15T03:15:52.888Z,11.20
2023-05-15T03:18:20.476Z,11.20
2023-05-15T03:20:49.232Z,11.10
2023-05-15T03:23:16.688Z,11.10
2023-05-15T03:25:44.274Z,11.00
2023-05-15T03:28:11.715Z,11.20
2023-05-15T03:30:39.146Z,11.20
2023-05-15T03:33:06.824Z,11.20
2023-05-15T03:35:34.231Z,11.30
2023-05-15T03:38:01.767Z,11.50
2023-05-15T03:40:29.146Z,11.40
2023-05-15T03:42:56.589Z,11.50
2023-05-15T03:45:24.195Z,11.40
2023-05-15T03:47:51.779Z,11.40
2023-05-15T03:50:19.168Z,11.40
2023-05-15T03:52:47.033Z,11.50
2023-05-15T03:55:14.757Z,11.40
2023-05-15T03:57:42.283Z,11.40
2023-05-15T04:00:11.166Z,11.40
2023-05-15T04:02:39.437Z,11.50
2023-05-15T04:05:07.817Z,11.50
2023-05-15T04:07:35.975Z,11.50
2023-05-15T04:10:04.163Z,11.40
2023-05-15T04:12:35.583Z,11.40
2023-05-15T04:15:23.881Z,11.40
2023-05-15T04:17:54.709Z,11.40
2023-05-15T04:20:25.960Z,11.40
2023-05-15T04:23:02.734Z,11.50
2023-05-15T04:25:31.000Z,11.50
2023-05-15T04:27:58.718Z,11.40
2023-05-15T04:30:26.824Z,11.50
2023-05-15T04:32:54.626Z,11.50
2023-05-15T04:35:29.399Z,11.50
2023-05-15T04:37:57.442Z,11.50
2023-05-15T04:40:25.819Z,11.60
2023-05-15T04:42:53.289Z,11.50
2023-05-15T04:45:20.908Z,11.60
2023-05-15T04:47:48.401Z,11.80
2023-05-15T04:50:16.233Z,11.90
2023-05-15T04:52:43.978Z,11.80
2023-05-15T04:55:14.333Z,11.80
2023-05-15T04:57:41.964Z,11.80
2023-05-15T05:00:12.721Z,11.90
2023-05-15T05:02:40.489Z,11.90
2023-05-15T05:05:09.755Z,11.90
2023-05-15T05:07:37.576Z,12.00
2023-05-15T05:10:06.449Z,12.20
2023-05-15T05:12:33.871Z,12.20
2023-05-15T05:15:01.318Z,12.40
2023-05-15T05:17:31.895Z,12.40
2023-05-15T05:19:59.584Z,12.50
2023-05-15T05:22:27.102Z,12.50
2023-05-15T05:24:55.305Z,12.60
2023-05-15T05:27:23.006Z,12.90
2023-05-15T05:29:50.662Z,13.10
2023-05-15T05:32:28.577Z,13.30
2023-05-15T05:34:56.115Z,13.50
2023-05-15T05:37:23.828Z,13.60
2023-05-15T05:39:51.279Z,13.80
2023-05-15T05:42:18.739Z,14.00
2023-05-15T05:44:46.193Z,14.10
2023-05-15T05:47:15.500Z,14.40
2023-05-15T05:49:43.780Z,14.50
2023-05-15T05:52:11.245Z,14.60
2023-05-15T05:54:38.692Z,14.80
2023-05-15T05:57:07.741Z,14.80
2023-05-15T05:59:35.904Z,14.80
2023-05-15T06:02:03.887Z,15.00
2023-05-15T06:04:33.479Z,15.00
2023-05-15T06:07:01.394Z,14.80
2023-05-15T06:09:29.317Z,14.80
2023-05-15T06:11:56.971Z,14.80
2023-05-15T06:14:24.463Z,14.80
2023-05-15T06:16:52.983Z,14.80
2023-05-15T06:19:21.814Z,14.70
2023-05-15T06:21:49.373Z,14.70
2023-05-15T06:24:17.020Z,14.80
2023-05-15T06:26:44.813Z,15.00
2023-05-15T06:29:12.284Z,14.90
2023-05-15T06:31:39.868Z,14.90
2023-05-15T06:34:07.378Z,14.90
2023-05-15T06:36:35.484Z,15.10
2023-05-15T06:39:05.586Z,14.90
2023-05-15T06:41:33.311Z,15.00
2023-05-15T06:44:01.455Z,14.90
2023-05-15T06:46:28.946Z,15.00
2023-05-15T06:48:56.635Z,14.90
2023-05-15T06:51:24.339Z,14.90
2023-05-15T06:53:51.768Z,15.00
2023-05-15T06:59:53.195Z,15.00
2023-05-15T07:02:44.452Z,15.10
2023-05-15T07:05:31.192Z,15.20
2023-05-15T07:08:02.951Z,15.30
2023-05-15T07:10:40.850Z,15.40
2023-05-15T07:13:24.676Z,15.40
2023-05-15T07:16:09.504Z,15.50
2023-05-15T07:18:37.676Z,15.80
2023-05-15T07:21:23.388Z,15.90
2023-05-15T07:23:51.086Z,16.00
2023-05-15T07:26:34.476Z,15.90
2023-05-15T07:29:19.475Z,16.10
2023-05-15T07:31:46.848Z,16.20
2023-05-15T07:34:14.372Z,16.40
2023-05-15T07:36:45.074Z,16.60
2023-05-15T07:39:13.259Z,16.40
2023-05-15T07:41:49.823Z,16.40
2023-05-15T07:44:19.377Z,16.70
2023-05-15T07:46:47.831Z,16.70
2023-05-15T07:49:18.489Z,16.80
2023-05-15T07:51:51.034Z,16.70
2023-05-15T07:54:21.537Z,16.70
2023-05-15T07:56:59.289Z,16.70
2023-05-15T08:00:11.621Z,16.70
2023-05-15T08:02:51.900Z,16.60
2023-05-15T08:05:19.295Z,16.80
2023-05-15T08:07:46.635Z,17.00
2023-05-15T08:10:14.005Z,17.00
2023-05-15T08:12:46.152Z,17.10
2023-05-15T08:15:14.118Z,17.20
2023-05-15T08:17:41.597Z,17.30
2023-05-15T08:20:09.630Z,17.40
2023-05-15T08:22:37.048Z,17.20
2023-05-15T08:25:05.964Z,17.10
2023-05-15T08:27:33.437Z,17.00
2023-05-15T08:30:00.850Z,17.40
2023-05-15T08:32:28.333Z,17.70
2023-05-15T08:34:55.796Z,17.80
2023-05-15T08:37:23.043Z,17.80
2023-05-15T08:39:50.414Z,18.00
2023-05-15T08:42:38.041Z,18.20
2023-05-15T08:45:07.506Z,18.00
2023-05-15T08:47:39.703Z,18.40
2023-05-15T08:50:13.932Z,18.50
2023-05-15T08:52:43.023Z,18.90
2023-05-15T08:55:11.068Z,19.00
2023-05-15T08:57:39.033Z,18.70
2023-05-15T09:00:09.191Z,18.90
2023-05-15T09:02:37.529Z,18.70
2023-05-15T09:05:06.327Z,18.80
2023-05-15T09:07:34.669Z,18.80
2023-05-15T09:10:03.578Z,18.40
2023-05-15T09:12:34.425Z,18.00
2023-05-15T09:15:31.049Z,18.10
2023-05-15T09:17:59.144Z,17.90
2023-05-15T09:20:27.912Z,18.20
2023-05-15T09:22:59.331Z,18.70
2023-05-15T09:25:38.249Z,19.00
2023-05-15T09:28:07.480Z,18.50
2023-05-15T09:30:38.170Z,18.40
2023-05-15T09:33:05.775Z,18.20
2023-05-15T09:35:37.937Z,18.30
2023-05-15T09:38:10.384Z,18.50
2023-05-15T09:40:39.194Z,18.80
2023-05-15T09:43:06.564Z,19.00
2023-05-15T09:45:33.908Z,18.90
2023-05-15T09:48:05.406Z,19.00
2023-05-15T09:50:38.028Z,18.60
2023-05-15T09:53:05.962Z,18.60
2023-05-15T09:55:34.949Z,18.70
2023-05-15T09:58:09.758Z,18.60
2023-05-15T10:00:47.622Z,18.60
2023-05-15T10:03:19.624Z,18.60
2023-05-15T10:05:47.319Z,18.50
2023-05-15T10:08:15.664Z,18.70
2023-05-15T10:10:43.690Z,18.90
2023-05-15T10:13:11.943Z,19.20
2023-05-15T10:15:40.027Z,19.30
2023-05-15T10:18:08.401Z,19.30
2023-05-15T10:20:36.859Z,19.30
2023-05-15T10:23:06.307Z,19.60
2023-05-15T10:25:50.425Z,20.00
2023-05-15T10:28:18.875Z,20.00
2023-05-15T10:30:46.722Z,20.00
2023-05-15T10:33:15.365Z,19.90
2023-05-15T10:35:43.173Z,19.80
2023-05-15T10:38:12.538Z,19.90
2023-05-15T10:40:41.823Z,20.00
2023-05-15T10:43:12.048Z,20.00
2023-05-15T10:45:39.828Z,20.30
2023-05-15T10:48:09.167Z,20.40
2023-05-15T10:50:39.523Z,20.70
2023-05-15T10:53:09.041Z,20.70
2023-05-15T10:55:37.037Z,20.60
2023-05-15T10:58:10.105Z,20.70
2023-05-15T11:00:46.265Z,20.90
2023-05-15T11:03:14.836Z,20.80
2023-05-15T11:06:09.189Z,20.90
2023-05-15T11:08:38.907Z,21.00
2023-05-15T11:11:06.644Z,20.70
2023-05-15T11:14:04.642Z,21.10
2023-05-15T11:16:53.868Z,21.70
2023-05-15T11:19:33.191Z,22.90
2023-05-15T11:22:17.348Z,23.80
2023-05-15T11:25:06.071Z,24.50
2023-05-15T11:27:41.966Z,25.00
2023-05-15T11:30:20.808Z,25.60
2023-05-15T11:32:59.252Z,26.80
2023-05-15T11:35:33.733Z,27.60
2023-05-15T11:38:10.242Z,28.50
2023-05-15T11:40:49.737Z,28.00
2023-05-15T11:43:31.936Z,27.40
2023-05-15T11:46:10.180Z,28.60
2023-05-15T11:48:44.429Z,28.40
2023-05-15T11:51:19.790Z,27.90
2023-05-15T11:53:49.257Z,28.00
2023-05-15T11:56:21.582Z,27.70
2023-05-15T11:58:50.550Z,27.40
2023-05-15T12:01:17.951Z,27.30
2023-05-15T12:03:48.811Z,27.90
2023-05-15T12:31:05.328Z,29.40
2023-05-15T12:33:32.906Z,29.10
2023-05-15T12:36:03.339Z,29.60
2023-05-15T12:38:31.138Z,29.20
2023-05-15T12:40:59.043Z,29.80
2023-05-15T12:43:26.837Z,30.80
2023-05-15T12:45:55.968Z,29.40
2023-05-15T12:48:23.734Z,30.40
2023-05-15T12:50:51.510Z,30.30
2023-05-15T12:53:21.979Z,29.40
2023-05-15T12:55:50.732Z,29.70
2023-05-15T12:58:23.481Z,30.90
2023-05-15T13:00:53.603Z,31.60
2023-05-15T13:03:22.084Z,31.80
2023-05-15T13:05:49.468Z,31.40
2023-05-15T13:08:18.214Z,30.50
2023-05-15T13:10:47.391Z,30.30
2023-05-15T13:13:16.527Z,31.40
2023-05-15T13:15:45.721Z,32.30
2023-05-15T13:18:16.192Z,32.40
2023-05-15T13:20:49.427Z,32.70
2023-05-15T13:23:19.276Z,32.20
2023-05-15T13:25:49.604Z,32.60
2023-05-15T13:28:16.915Z,32.40
2023-05-15T13:30:44.423Z,32.70
2023-05-15T13:33:12.940Z,32.50
2023-05-15T13:35:43.344Z,32.10
2023-05-15T13:38:11.821Z,31.10
2023-05-15T13:40:39.597Z,31.80
2023-05-15T13:43:07.081Z,31.30
2023-05-15T13:45:35.013Z,31.70
2023-05-15T13:48:02.543Z,31.10
2023-05-15T13:50:29.993Z,30.40
2023-05-15T13:52:57.310Z,29.80
2023-05-15T13:55:27.698Z,30.90
2023-05-15T13:57:58.111Z,31.40
2023-05-15T14:00:25.785Z,31.30
2023-05-15T14:02:53.365Z,32.00
2023-05-15T14:05:20.867Z,32.10
2023-05-15T14:07:48.275Z,31.40
2023-05-15T14:10:15.977Z,31.00
2023-05-15T14:12:43.698Z,31.00
2023-05-15T14:15:12.156Z,31.80
2023-05-15T14:17:40.974Z,32.10
2023-05-15T14:20:10.740Z,32.30
2023-05-15T14:22:38.985Z,31.90
2023-05-15T14:25:15.799Z,30.60
2023-05-15T14:27:43.337Z,30.70
2023-05-15T14:30:11.382Z,31.60
2023-05-15T14:32:38.957Z,31.70
2023-05-15T14:35:09.466Z,29.70
2023-05-15T14:37:37.715Z,29.50
2023-05-15T14:40:07.183Z,28.30
2023-05-15T14:42:34.836Z,29.10
2023-05-15T14:45:02.373Z,29.10
2023-05-15T14:47:30.170Z,29.30
2023-05-15T14:49:58.692Z,27.90
2023-05-15T14:52:26.143Z,28.70
2023-05-15T14:55:07.962Z,30.20
2023-05-15T14:57:36.985Z,31.70
2023-05-15T15:00:14.400Z,32.70
2023-05-15T15:02:43.163Z,32.70
2023-05-15T15:05:10.628Z,32.70
2023-05-15T15:08:13.900Z,32.40
2023-05-15T15:10:41.471Z,32.70
2023-05-15T15:13:15.999Z,32.40
2023-05-15T15:15:43.710Z,31.70
2023-05-15T15:18:11.305Z,31.30
2023-05-15T15:20:38.886Z,32.20
2023-05-15T15:23:06.461Z,30.50
2023-05-15T15:25:34.474Z,30.00
2023-05-15T15:28:02.590Z,29.80
2023-05-15T15:30:30.186Z,30.80
2023-05-15T15:32:57.957Z,29.20
2023-05-15T15:35:25.959Z,26.60
2023-05-15T15:37:56.572Z,26.10
2023-05-15T15:40:24.637Z,25.90
2023-05-15T15:42:54.312Z,26.40
2023-05-15T15:45:21.848Z,26.00
2023-05-15T15:47:49.990Z,25.50
2023-05-15T15:50:23.517Z,25.30
2023-05-15T15:52:51.379Z,25.40
2023-05-15T15:55:19.056Z,26.90
2023-05-15T15:57:46.382Z,27.80
2023-05-15T16:00:14.393Z,28.80
2023-05-15T16:02:41.938Z,29.50
2023-05-15T16:05:09.779Z,29.60
2023-05-15T16:07:37.572Z,28.50
2023-05-15T16:10:12.620Z,26.50
2023-05-15T16:12:42.522Z,24.80
2023-05-15T16:15:21.611Z,24.10
2023-05-15T16:17:52.756Z,23.80
2023-05-15T16:20:20.841Z,24.60
2023-05-15T16:22:48.234Z,26.20
2023-05-15T16:25:15.734Z,26.20
2023-05-15T16:27:43.094Z,25.50
2023-05-15T16:30:11.580Z,23.90
2023-05-15T16:32:40.227Z,23.50
2023-05-15T16:35:08.382Z,23.00
2023-05-15T16:37:36.115Z,22.50
2023-05-15T16:40:04.272Z,22.80
2023-05-15T16:42:36.342Z,23.10
2023-05-15T16:45:05.171Z,23.20
2023-05-15T16:47:32.591Z,23.10
2023-05-15T16:50:00.013Z,23.30
2023-05-15T16:52:28.236Z,23.20
2023-05-15T16:54:55.621Z,22.50
2023-05-15T16:57:26.110Z,22.40
2023-05-15T16:59:53.481Z,22.10
2023-05-15T17:02:21.209Z,22.00
2023-05-15T17:04:48.711Z,21.90
2023-05-15T17:07:16.090Z,21.80
2023-05-15T17:09:44.635Z,21.90
2023-05-15T17:12:12.017Z,21.80
2023-05-15T17:14:39.489Z,22.00
2023-05-15T17:17:18.274Z,21.90
2023-05-15T17:19:45.870Z,21.70
2023-05-15T17:22:13.404Z,21.60
2023-05-15T17:24:50.886Z,21.70
2023-05-15T17:27:20.014Z,21.70
2023-05-15T17:29:48.063Z,21.60
2023-05-15T17:32:16.906Z,21.50
2023-05-15T17:34:45.017Z,21.40
2023-05-15T17:37:12.396Z,21.40
2023-05-15T17:39:39.853Z,21.30
2023-05-15T17:42:07.269Z,21.40
2023-05-15T17:44:34.669Z,21.30
2023-05-15T17:47:02.156Z,21.30
2023-05-15T17:49:30.251Z,21.20
2023-05-15T17:52:09.735Z,21.00
2023-05-15T17:54:38.384Z,21.00
2023-05-15T17:57:05.976Z,20.90
2023-05-15T17:59:33.623Z,20.90
2023-05-15T18:02:02.888Z,21.00
2023-05-15T18:04:30.807Z,21.20
2023-05-15T18:06:58.241Z,21.20
2023-05-15T18:09:26.447Z,21.10
2023-05-15T18:11:54.336Z,20.40
2023-05-15T18:14:21.767Z,20.20
2023-05-15T18:16:49.081Z,20.10
2023-05-15T18:19:16.683Z,20.00
2023-05-15T18:21:44.362Z,19.80
2023-05-15T18:24:11.840Z,19.60
2023-05-15T18:26:41.385Z,19.50
2023-05-15T18:29:08.925Z,19.40
2023-05-15T18:31:39.753Z,19.20
2023-05-15T18:34:07.289Z,19.30
2023-05-15T18:36:37.472Z,19.10
2023-05-15T18:39:07.644Z,19.00
2023-05-15T18:41:35.173Z,18.90
2023-05-15T18:44:02.643Z,18.90
2023-05-15T18:46:31.733Z,18.80
2023-05-15T18:48:59.714Z,18.70
2023-05-15T18:51:31.299Z,18.70
2023-05-15T18:53:58.669Z,18.70
2023-05-15T18:56:26.022Z,18.70
2023-05-15T18:58:54.688Z,18.60
2023-05-15T19:01:22.150Z,18.60
2023-05-15T19:03:49.715Z,18.40
2023-05-15T19:06:20.151Z,18.10
2023-05-15T19:08:48.486Z,18.00
2023-05-15T19:11:17.394Z,17.90
2023-05-15T19:13:44.757Z,17.70
2023-05-15T19:16:12.412Z,17.60
2023-05-15T19:18:41.810Z,17.50
2023-05-15T19:21:09.287Z,17.30
2023-05-15T19:23:36.810Z,17.20
2023-05-15T19:26:04.070Z,17.20
2023-05-15T19:28:31.574Z,17.20
2023-05-15T19:30:58.892Z,17.00
2023-05-15T19:33:26.317Z,17.00
2023-05-15T19:35:53.626Z,16.90
2023-05-15T19:38:21.076Z,16.90
2023-05-15T19:40:48.389Z,16.80
2023-05-15T19:43:15.697Z,16.90
2023-05-15T19:45:43.800Z,16.70
2023-05-15T19:48:11.749Z,16.70
2023-05-15T19:50:39.646Z,16.60
2023-05-15T19:53:07.471Z,16.60
2023-05-15T19:55:34.919Z,16.50
2023-05-15T19:58:05.145Z,16.50
2023-05-15T20:00:32.774Z,16.50
2023-05-15T20:03:00.981Z,16.50
2023-05-15T20:05:28.711Z,16.50
2023-05-15T20:07:56.059Z,16.40
2023-05-15T20:10:23.488Z,16.30
2023-05-15T20:12:50.793Z,16.30
2023-05-15T20:15:18.131Z,16.20
2023-05-15T20:17:45.666Z,16.20
2023-05-15T20:20:13.192Z,16.10
2023-05-15T20:22:44.137Z,16.10
2023-05-15T20:25:11.692Z,16.00
2023-05-15T20:27:39.034Z,16.00
2023-05-15T20:30:07.205Z,16.00
2023-05-15T20:32:34.837Z,15.90
2023-05-15T20:35:02.837Z,15.90
2023-05-15T20:37:30.298Z,15.90
2023-05-15T20:39:57.842Z,15.80
2023-05-15T20:42:26.629Z,15.80
2023-05-15T20:44:56.719Z,15.80
2023-05-15T20:47:24.243Z,15.70
2023-05-15T20:49:51.523Z,15.70
2023-05-15T20:52:20.785Z,15.70
2023-05-15T20:54:48.163Z,15.70
2023-05-15T20:57:15.912Z,15.70
2023-05-15T20:59:43.243Z,15.60
2023-05-15T21:02:14.153Z,15.50
2023-05-15T21:04:41.660Z,15.50
2023-05-15T21:07:09.038Z,15.40
2023-05-15T21:09:39.250Z,15.40
2023-05-15T21:12:06.979Z,15.40
2023-05-15T21:14:34.274Z,15.30
2023-05-15T21:17:01.645Z,15.30
2023-05-15T21:19:28.916Z,15.20
2023-05-15T21:22:00.391Z,15.20
2023-05-15T21:24:27.726Z,15.10
2023-05-15T21:26:55.011Z,15.10
2023-05-15T21:29:22.484Z,15.00
2023-05-15T21:31:49.935Z,15.00
2023-05-15T21:34:17.280Z,15.00
2023-05-15T21:36:47.123Z,15.00
2023-05-15T21:39:15.271Z,15.10
2023-05-15T21:41:42.567Z,14.90
2023-05-15T21:44:12.136Z,14.80
2023-05-15T21:46:39.539Z,14.90
2023-05-15T21:49:06.846Z,14.80
2023-05-15T21:51:34.504Z,14.80
2023-05-15T21:54:01.859Z,14.80
2023-05-15T21:56:29.192Z,14.80
2023-05-15T21:58:56.963Z,14.70
2023-05-15T22:01:24.369Z,14.70
2023-05-15T22:03:51.714Z,14.70
2023-05-15T22:06:19.012Z,14.70
2023-05-15T22:08:46.299Z,14.60
2023-05-15T22:11:14.070Z,14.60
2023-05-15T22:13:41.434Z,14.60
2023-05-15T22:16:09.525Z,14.50
2023-05-15T22:18:39.986Z,14.50
2023-05-15T22:21:07.407Z,14.50
2023-05-15T22:23:34.638Z,14.50
2023-05-15T22:26:02.177Z,14.40
2023-05-15T22:28:29.442Z,14.40
2023-05-15T22:30:56.801Z,14.50
2023-05-15T22:33:27.145Z,14.40
2023-05-15T22:35:54.453Z,14.40
2023-05-15T22:38:21.994Z,14.40
2023-05-15T22:40:52.982Z,14.40
2023-05-15T22:43:21.423Z,14.40
2023-05-15T22:45:48.791Z,14.40
2023-05-15T22:48:16.384Z,14.30
2023-05-15T22:50:47.651Z,14.40
2023-05-15T22:53:18.371Z,14.30
2023-05-15T22:55:45.921Z,14.20
2023-05-15T22:58:13.905Z,14.20
2023-05-15T23:00:41.222Z,14.20
2023-05-15T23:03:09.050Z,14.20
2023-05-15T23:05:36.446Z,14.10
2023-05-15T23:08:03.962Z,14.20
2023-05-15T23:10:31.253Z,14.10
2023-05-15T23:12:58.640Z,14.10
2023-05-15T23:15:26.074Z,14.10
2023-05-15T23:17:53.499Z,14.20
2023-05-15T23:20:21.494Z,14.00
2023-05-15T23:22:49.012Z,14.10
2023-05-15T23:25:16.353Z,14.10
2023-05-15T23:27:43.675Z,14.10
2023-05-15T23:30:11.288Z,14.00
2023-05-15T23:32:38.594Z,14.00
2023-05-15T23:35:06.347Z,13.90
2023-05-15T23:37:38.755Z,13.90
2023-05-15T23:40:07.140Z,13.90
2023-05-15T23:42:34.406Z,13.90
2023-05-15T23:45:02.284Z,13.90
2023-05-15T23:47:29.628Z,13.90
2023-05-15T23:49:56.938Z,13.80
2023-05-15T23:52:25.883Z,13.80
2023-05-15T23:54:53.252Z,13.80
2023-05-15T23:57:20.742Z,13.70
2023-05-15T23:59:47.979Z,13.70
